sensor_id;sensor_type;location;lat;lon;timestamp;P1;durP1;ratioP1;P2;durP2;ratioP2
26319;SDS011;14024;52.226;5.200;2022-09-09T00:00:41;8.75;;;2.75;;
26319;SDS011;14024;52.226;5.200;2022-09-09T00:03:18;4.93;;;2.50;;
26319;SDS011;14024;52.226;5.200;2022-09-09T00:05:54;2.90;;;2.40;;
26319;SDS011;14024;52.226;5.200;2022-09-09T00:08:22;5.95;;;2.17;;
26319;SDS011;14024;52.226;5.200;2022-09-09T00:10:58;5.80;;;2.50;;
26319;SDS011;14024;52.226;5.200;2022-09-09T00:13:28;4.18;;;2.47;;
26319;SDS011;14024;52.226;5.200;2022-09-09T00:16:03;4.57;;;2.30;;
26319;SDS011;14024;52.226;5.200;2022-09-09T00:18:48;9.02;;;2.47;;
26319;SDS011;14024;52.226;5.200;2022-09-09T00:21:16;4.10;;;2.30;;
26319;SDS011;14024;52.226;5.200;2022-09-09T00:23:47;4.72;;;2.40;;
26319;SDS011;14024;52.226;5.200;2022-09-09T00:26:18;4.70;;;2.20;;
26319;SDS011;14024;52.226;5.200;2022-09-09T00:28:47;4.38;;;2.40;;
26319;SDS011;14024;52.226;5.200;2022-09-09T00:31:16;5.43;;;2.65;;
26319;SDS011;14024;52.226;5.200;2022-09-09T00:33:44;8.35;;;2.75;;
26319;SDS011;14024;52.226;5.200;2022-09-09T00:36:14;4.53;;;2.95;;
26319;SDS011;14024;52.226;5.200;2022-09-09T00:38:43;4.70;;;2.30;;
26319;SDS011;14024;52.226;5.200;2022-09-09T00:41:19;5.43;;;3.05;;
26319;SDS011;14024;52.226;5.200;2022-09-09T00:44:25;7.25;;;3.00;;
26319;SDS011;14024;52.226;5.200;2022-09-09T00:46:41;5.10;;;3.10;;
26319;SDS011;14024;52.226;5.200;2022-09-09T00:54:38;6.00;;;3.17;;
26319;SDS011;14024;52.226;5.200;2022-09-09T01:05:02;8.02;;;3.63;;
26319;SDS011;14024;52.226;5.200;2022-09-09T01:07:30;4.03;;;2.90;;
26319;SDS011;14024;52.226;5.200;2022-09-09T01:09:57;8.13;;;3.17;;
26319;SDS011;14024;52.226;5.200;2022-09-09T01:12:42;7.25;;;3.15;;
26319;SDS011;14024;52.226;5.200;2022-09-09T01:15:26;7.13;;;3.83;;
26319;SDS011;14024;52.226;5.200;2022-09-09T01:17:57;8.15;;;3.85;;
26319;SDS011;14024;52.226;5.200;2022-09-09T01:20:28;10.83;;;4.17;;
26319;SDS011;14024;52.226;5.200;2022-09-09T01:28:25;6.18;;;3.28;;
26319;SDS011;14024;52.226;5.200;2022-09-09T01:30:52;7.05;;;3.92;;
26319;SDS011;14024;52.226;5.200;2022-09-09T01:33:18;7.90;;;3.72;;
26319;SDS011;14024;52.226;5.200;2022-09-09T01:38:11;10.30;;;4.18;;
26319;SDS011;14024;52.226;5.200;2022-09-09T01:40:37;9.48;;;4.15;;
26319;SDS011;14024;52.226;5.200;2022-09-09T01:43:03;6.78;;;4.60;;
26319;SDS011;14024;52.226;5.200;2022-09-09T01:45:30;8.90;;;4.85;;
26319;SDS011;14024;52.226;5.200;2022-09-09T01:47:56;7.22;;;4.32;;
26319;SDS011;14024;52.226;5.200;2022-09-09T01:50:22;8.90;;;4.68;;
26319;SDS011;14024;52.226;5.200;2022-09-09T01:52:50;7.65;;;4.38;;
26319;SDS011;14024;52.226;5.200;2022-09-09T01:55:19;7.53;;;4.50;;
26319;SDS011;14024;52.226;5.200;2022-09-09T01:57:50;7.78;;;4.78;;
26319;SDS011;14024;52.226;5.200;2022-09-09T02:00:20;9.60;;;4.82;;
26319;SDS011;14024;52.226;5.200;2022-09-09T02:05:35;12.02;;;5.10;;
26319;SDS011;14024;52.226;5.200;2022-09-09T02:08:13;8.27;;;5.05;;
26319;SDS011;14024;52.226;5.200;2022-09-09T02:10:57;11.60;;;5.45;;
26319;SDS011;14024;52.226;5.200;2022-09-09T02:13:25;10.65;;;5.38;;
26319;SDS011;14024;52.226;5.200;2022-09-09T02:15:52;15.95;;;5.85;;
26319;SDS011;14024;52.226;5.200;2022-09-09T02:18:24;10.30;;;5.90;;
26319;SDS011;14024;52.226;5.200;2022-09-09T02:20:51;11.23;;;5.70;;
26319;SDS011;14024;52.226;5.200;2022-09-09T02:23:17;10.23;;;5.43;;
26319;SDS011;14024;52.226;5.200;2022-09-09T02:25:45;10.27;;;5.88;;
26319;SDS011;14024;52.226;5.200;2022-09-09T02:28:11;14.38;;;6.25;;
26319;SDS011;14024;52.226;5.200;2022-09-09T02:30:39;12.23;;;6.50;;
26319;SDS011;14024;52.226;5.200;2022-09-09T02:33:06;11.43;;;5.43;;
26319;SDS011;14024;52.226;5.200;2022-09-09T02:35:32;10.93;;;5.53;;
26319;SDS011;14024;52.226;5.200;2022-09-09T02:38:00;11.57;;;6.45;;
26319;SDS011;14024;52.226;5.200;2022-09-09T02:40:28;11.60;;;5.80;;
26319;SDS011;14024;52.226;5.200;2022-09-09T02:42:54;15.40;;;5.70;;
26319;SDS011;14024;52.226;5.200;2022-09-09T02:45:23;15.00;;;7.32;;
26319;SDS011;14024;52.226;5.200;2022-09-09T02:47:50;11.60;;;6.00;;
26319;SDS011;14024;52.226;5.200;2022-09-09T02:50:26;17.17;;;6.60;;
26319;SDS011;14024;52.226;5.200;2022-09-09T02:53:02;9.30;;;5.97;;
26319;SDS011;14024;52.226;5.200;2022-09-09T02:57:57;12.48;;;5.85;;
26319;SDS011;14024;52.226;5.200;2022-09-09T03:00:24;15.75;;;6.25;;
26319;SDS011;14024;52.226;5.200;2022-09-09T03:02:50;10.55;;;6.55;;
26319;SDS011;14024;52.226;5.200;2022-09-09T03:05:16;10.07;;;6.40;;
26319;SDS011;14024;52.226;5.200;2022-09-09T03:07:43;16.13;;;7.35;;
26319;SDS011;14024;52.226;5.200;2022-09-09T03:10:09;8.45;;;5.93;;
26319;SDS011;14024;52.226;5.200;2022-09-09T03:12:35;11.93;;;6.45;;
26319;SDS011;14024;52.226;5.200;2022-09-09T03:15:01;11.63;;;5.90;;
26319;SDS011;14024;52.226;5.200;2022-09-09T03:17:27;13.18;;;6.25;;
26319;SDS011;14024;52.226;5.200;2022-09-09T03:19:53;11.27;;;6.07;;
26319;SDS011;14024;52.226;5.200;2022-09-09T03:22:20;11.50;;;6.53;;
26319;SDS011;14024;52.226;5.200;2022-09-09T03:24:46;14.73;;;5.78;;
26319;SDS011;14024;52.226;5.200;2022-09-09T03:27:12;10.43;;;5.78;;
26319;SDS011;14024;52.226;5.200;2022-09-09T03:29:39;14.20;;;5.75;;
26319;SDS011;14024;52.226;5.200;2022-09-09T03:32:05;11.75;;;6.53;;
26319;SDS011;14024;52.226;5.200;2022-09-09T03:34:31;10.32;;;5.55;;
26319;SDS011;14024;52.226;5.200;2022-09-09T03:36:57;11.70;;;5.60;;
26319;SDS011;14024;52.226;5.200;2022-09-09T03:39:23;11.20;;;5.60;;
26319;SDS011;14024;52.226;5.200;2022-09-09T03:41:49;12.40;;;5.63;;
26319;SDS011;14024;52.226;5.200;2022-09-09T03:44:15;10.75;;;5.68;;
26319;SDS011;14024;52.226;5.200;2022-09-09T03:46:41;8.52;;;5.38;;
26319;SDS011;14024;52.226;5.200;2022-09-09T03:49:07;9.30;;;6.07;;
26319;SDS011;14024;52.226;5.200;2022-09-09T03:51:34;12.13;;;5.85;;
26319;SDS011;14024;52.226;5.200;2022-09-09T03:54:01;13.50;;;6.15;;
26319;SDS011;14024;52.226;5.200;2022-09-09T03:56:29;14.98;;;6.32;;
26319;SDS011;14024;52.226;5.200;2022-09-09T03:58:56;12.50;;;6.07;;
26319;SDS011;14024;52.226;5.200;2022-09-09T04:01:22;13.23;;;6.30;;
26319;SDS011;14024;52.226;5.200;2022-09-09T04:03:48;13.57;;;6.13;;
26319;SDS011;14024;52.226;5.200;2022-09-09T04:06:15;11.27;;;6.07;;
26319;SDS011;14024;52.226;5.200;2022-09-09T04:08:42;12.90;;;6.20;;
26319;SDS011;14024;52.226;5.200;2022-09-09T04:11:09;11.43;;;5.93;;
26319;SDS011;14024;52.226;5.200;2022-09-09T04:13:36;17.05;;;7.43;;
26319;SDS011;14024;52.226;5.200;2022-09-09T04:16:05;14.43;;;6.18;;
26319;SDS011;14024;52.226;5.200;2022-09-09T04:18:31;13.27;;;5.72;;
26319;SDS011;14024;52.226;5.200;2022-09-09T04:20:58;12.15;;;5.95;;
26319;SDS011;14024;52.226;5.200;2022-09-09T04:23:24;9.10;;;5.75;;
26319;SDS011;14024;52.226;5.200;2022-09-09T04:25:51;10.23;;;5.90;;
26319;SDS011;14024;52.226;5.200;2022-09-09T04:28:18;8.02;;;5.75;;
26319;SDS011;14024;52.226;5.200;2022-09-09T04:30:45;18.67;;;6.28;;
26319;SDS011;14024;52.226;5.200;2022-09-09T04:33:11;12.23;;;5.72;;
26319;SDS011;14024;52.226;5.200;2022-09-09T04:35:37;8.40;;;5.43;;
26319;SDS011;14024;52.226;5.200;2022-09-09T04:38:04;9.60;;;5.65;;
26319;SDS011;14024;52.226;5.200;2022-09-09T04:40:32;11.75;;;6.07;;
26319;SDS011;14024;52.226;5.200;2022-09-09T04:42:58;11.02;;;6.80;;
26319;SDS011;14024;52.226;5.200;2022-09-09T04:45:24;12.18;;;6.40;;
26319;SDS011;14024;52.226;5.200;2022-09-09T04:47:51;12.63;;;5.85;;
26319;SDS011;14024;52.226;5.200;2022-09-09T04:50:17;9.07;;;6.20;;
26319;SDS011;14024;52.226;5.200;2022-09-09T04:52:43;9.75;;;5.30;;
26319;SDS011;14024;52.226;5.200;2022-09-09T04:55:09;11.77;;;5.78;;
26319;SDS011;14024;52.226;5.200;2022-09-09T04:57:35;15.98;;;6.03;;
26319;SDS011;14024;52.226;5.200;2022-09-09T05:00:02;11.80;;;6.05;;
26319;SDS011;14024;52.226;5.200;2022-09-09T05:02:28;11.52;;;5.65;;
26319;SDS011;14024;52.226;5.200;2022-09-09T05:04:55;13.38;;;5.72;;
26319;SDS011;14024;52.226;5.200;2022-09-09T05:07:21;9.25;;;5.32;;
26319;SDS011;14024;52.226;5.200;2022-09-09T05:09:47;12.57;;;4.90;;
26319;SDS011;14024;52.226;5.200;2022-09-09T05:12:14;15.65;;;5.45;;
26319;SDS011;14024;52.226;5.200;2022-09-09T05:14:41;15.10;;;5.60;;
26319;SDS011;14024;52.226;5.200;2022-09-09T05:17:07;12.90;;;4.55;;
26319;SDS011;14024;52.226;5.200;2022-09-09T05:19:33;8.43;;;4.53;;
26319;SDS011;14024;52.226;5.200;2022-09-09T05:21:59;11.55;;;5.63;;
26319;SDS011;14024;52.226;5.200;2022-09-09T05:24:26;9.27;;;5.03;;
26319;SDS011;14024;52.226;5.200;2022-09-09T05:26:52;13.13;;;5.55;;
26319;SDS011;14024;52.226;5.200;2022-09-09T05:29:18;14.38;;;5.70;;
26319;SDS011;14024;52.226;5.200;2022-09-09T05:31:44;10.10;;;5.25;;
26319;SDS011;14024;52.226;5.200;2022-09-09T05:34:10;10.57;;;5.13;;
26319;SDS011;14024;52.226;5.200;2022-09-09T05:36:36;9.38;;;4.95;;
26319;SDS011;14024;52.226;5.200;2022-09-09T05:39:03;10.15;;;5.28;;
26319;SDS011;14024;52.226;5.200;2022-09-09T05:41:29;8.13;;;5.00;;
26319;SDS011;14024;52.226;5.200;2022-09-09T05:43:55;9.95;;;4.38;;
26319;SDS011;14024;52.226;5.200;2022-09-09T05:46:24;12.20;;;5.55;;
26319;SDS011;14024;52.226;5.200;2022-09-09T05:48:51;21.80;;;6.53;;
26319;SDS011;14024;52.226;5.200;2022-09-09T05:51:18;10.10;;;5.63;;
26319;SDS011;14024;52.226;5.200;2022-09-09T05:53:45;11.07;;;5.88;;
26319;SDS011;14024;52.226;5.200;2022-09-09T05:56:13;12.70;;;4.55;;
26319;SDS011;14024;52.226;5.200;2022-09-09T05:58:39;11.88;;;5.65;;
26319;SDS011;14024;52.226;5.200;2022-09-09T06:01:09;9.00;;;5.25;;
26319;SDS011;14024;52.226;5.200;2022-09-09T06:03:36;11.85;;;5.40;;
26319;SDS011;14024;52.226;5.200;2022-09-09T06:06:06;11.52;;;4.75;;
26319;SDS011;14024;52.226;5.200;2022-09-09T06:08:33;9.05;;;5.20;;
26319;SDS011;14024;52.226;5.200;2022-09-09T06:11:02;11.32;;;4.55;;
26319;SDS011;14024;52.226;5.200;2022-09-09T06:13:29;19.85;;;6.13;;
26319;SDS011;14024;52.226;5.200;2022-09-09T06:15:55;13.45;;;5.32;;
26319;SDS011;14024;52.226;5.200;2022-09-09T06:18:23;13.25;;;6.13;;
26319;SDS011;14024;52.226;5.200;2022-09-09T06:20:58;12.30;;;5.05;;
26319;SDS011;14024;52.226;5.200;2022-09-09T06:23:31;11.43;;;5.50;;
26319;SDS011;14024;52.226;5.200;2022-09-09T06:26:04;16.42;;;5.00;;
26319;SDS011;14024;52.226;5.200;2022-09-09T06:28:34;18.42;;;5.65;;
26319;SDS011;14024;52.226;5.200;2022-09-09T06:31:00;12.23;;;4.50;;
26319;SDS011;14024;52.226;5.200;2022-09-09T06:33:26;10.70;;;4.65;;
26319;SDS011;14024;52.226;5.200;2022-09-09T06:35:53;21.52;;;4.85;;
26319;SDS011;14024;52.226;5.200;2022-09-09T06:38:19;13.43;;;4.95;;
26319;SDS011;14024;52.226;5.200;2022-09-09T06:40:51;10.25;;;4.82;;
26319;SDS011;14024;52.226;5.200;2022-09-09T06:43:17;11.50;;;4.38;;
26319;SDS011;14024;52.226;5.200;2022-09-09T06:45:51;11.23;;;4.53;;
26319;SDS011;14024;52.226;5.200;2022-09-09T06:50:43;11.80;;;4.45;;
26319;SDS011;14024;52.226;5.200;2022-09-09T06:53:09;12.32;;;4.20;;
26319;SDS011;14024;52.226;5.200;2022-09-09T06:55:35;13.55;;;4.30;;
26319;SDS011;14024;52.226;5.200;2022-09-09T06:58:01;14.88;;;4.20;;
26319;SDS011;14024;52.226;5.200;2022-09-09T07:00:27;17.60;;;4.80;;
26319;SDS011;14024;52.226;5.200;2022-09-09T07:02:55;15.45;;;3.83;;
26319;SDS011;14024;52.226;5.200;2022-09-09T07:05:21;16.85;;;5.20;;
26319;SDS011;14024;52.226;5.200;2022-09-09T07:07:47;11.85;;;3.75;;
26319;SDS011;14024;52.226;5.200;2022-09-09T07:10:13;19.15;;;4.70;;
26319;SDS011;14024;52.226;5.200;2022-09-09T07:12:39;13.65;;;4.55;;
26319;SDS011;14024;52.226;5.200;2022-09-09T07:15:05;14.88;;;3.65;;
26319;SDS011;14024;52.226;5.200;2022-09-09T07:17:31;15.27;;;5.00;;
26319;SDS011;14024;52.226;5.200;2022-09-09T07:19:57;13.52;;;4.43;;
26319;SDS011;14024;52.226;5.200;2022-09-09T07:22:23;17.23;;;4.63;;
26319;SDS011;14024;52.226;5.200;2022-09-09T07:24:50;9.18;;;4.22;;
26319;SDS011;14024;52.226;5.200;2022-09-09T07:27:15;11.27;;;3.78;;
26319;SDS011;14024;52.226;5.200;2022-09-09T07:29:41;13.30;;;4.00;;
26319;SDS011;14024;52.226;5.200;2022-09-09T07:32:07;13.55;;;4.30;;
26319;SDS011;14024;52.226;5.200;2022-09-09T07:34:33;25.73;;;5.75;;
26319;SDS011;14024;52.226;5.200;2022-09-09T07:36:59;14.20;;;4.72;;
26319;SDS011;14024;52.226;5.200;2022-09-09T07:39:25;14.25;;;4.90;;
26319;SDS011;14024;52.226;5.200;2022-09-09T07:41:52;16.52;;;4.78;;
26319;SDS011;14024;52.226;5.200;2022-09-09T07:44:23;13.52;;;4.82;;
26319;SDS011;14024;52.226;5.200;2022-09-09T07:46:52;14.33;;;5.13;;
26319;SDS011;14024;52.226;5.200;2022-09-09T07:49:18;15.38;;;4.32;;
26319;SDS011;14024;52.226;5.200;2022-09-09T07:51:45;13.57;;;4.68;;
26319;SDS011;14024;52.226;5.200;2022-09-09T07:54:11;13.88;;;5.03;;
26319;SDS011;14024;52.226;5.200;2022-09-09T07:56:38;14.70;;;4.40;;
26319;SDS011;14024;52.226;5.200;2022-09-09T07:59:05;15.70;;;4.78;;
26319;SDS011;14024;52.226;5.200;2022-09-09T08:01:32;9.38;;;4.35;;
26319;SDS011;14024;52.226;5.200;2022-09-09T08:06:26;16.67;;;5.72;;
26319;SDS011;14024;52.226;5.200;2022-09-09T08:08:52;13.02;;;4.45;;
26319;SDS011;14024;52.226;5.200;2022-09-09T08:11:20;10.20;;;4.32;;
26319;SDS011;14024;52.226;5.200;2022-09-09T08:13:48;9.45;;;4.05;;
26319;SDS011;14024;52.226;5.200;2022-09-09T08:16:20;11.43;;;4.25;;
26319;SDS011;14024;52.226;5.200;2022-09-09T08:18:47;12.38;;;5.47;;
26319;SDS011;14024;52.226;5.200;2022-09-09T08:21:15;12.38;;;5.20;;
26319;SDS011;14024;52.226;5.200;2022-09-09T08:23:43;13.82;;;4.47;;
26319;SDS011;14024;52.226;5.200;2022-09-09T08:26:17;12.38;;;4.15;;
26319;SDS011;14024;52.226;5.200;2022-09-09T08:28:51;13.02;;;4.22;;
26319;SDS011;14024;52.226;5.200;2022-09-09T08:31:19;15.25;;;4.43;;
26319;SDS011;14024;52.226;5.200;2022-09-09T08:33:46;13.70;;;4.22;;
26319;SDS011;14024;52.226;5.200;2022-09-09T08:36:13;17.75;;;4.18;;
26319;SDS011;14024;52.226;5.200;2022-09-09T08:38:40;13.75;;;4.38;;
26319;SDS011;14024;52.226;5.200;2022-09-09T08:43:42;12.00;;;4.60;;
26319;SDS011;14024;52.226;5.200;2022-09-09T08:48:51;13.15;;;3.88;;
26319;SDS011;14024;52.226;5.200;2022-09-09T08:51:19;15.45;;;4.30;;
26319;SDS011;14024;52.226;5.200;2022-09-09T08:53:46;13.27;;;3.75;;
26319;SDS011;14024;52.226;5.200;2022-09-09T08:56:14;10.07;;;4.13;;
26319;SDS011;14024;52.226;5.200;2022-09-09T08:58:47;18.40;;;4.32;;
26319;SDS011;14024;52.226;5.200;2022-09-09T09:11:45;10.23;;;3.90;;
26319;SDS011;14024;52.226;5.200;2022-09-09T09:19:08;11.07;;;4.00;;
26319;SDS011;14024;52.226;5.200;2022-09-09T09:21:48;12.23;;;3.90;;
26319;SDS011;14024;52.226;5.200;2022-09-09T09:26:41;13.95;;;4.38;;
26319;SDS011;14024;52.226;5.200;2022-09-09T09:29:13;14.95;;;3.85;;
26319;SDS011;14024;52.226;5.200;2022-09-09T09:31:41;18.50;;;4.20;;
26319;SDS011;14024;52.226;5.200;2022-09-09T09:34:08;17.05;;;4.38;;
26319;SDS011;14024;52.226;5.200;2022-09-09T09:36:41;9.95;;;3.90;;
26319;SDS011;14024;52.226;5.200;2022-09-09T09:39:09;19.00;;;4.35;;
26319;SDS011;14024;52.226;5.200;2022-09-09T09:41:36;8.60;;;3.50;;
26319;SDS011;14024;52.226;5.200;2022-09-09T09:44:04;12.75;;;3.47;;
26319;SDS011;14024;52.226;5.200;2022-09-09T09:46:30;9.73;;;3.83;;
26319;SDS011;14024;52.226;5.200;2022-09-09T09:49:01;16.52;;;3.90;;
26319;SDS011;14024;52.226;5.200;2022-09-09T09:51:28;9.77;;;3.20;;
26319;SDS011;14024;52.226;5.200;2022-09-09T09:54:01;7.70;;;3.50;;
26319;SDS011;14024;52.226;5.200;2022-09-09T09:56:30;13.98;;;3.55;;
26319;SDS011;14024;52.226;5.200;2022-09-09T09:58:57;9.75;;;3.42;;
26319;SDS011;14024;52.226;5.200;2022-09-09T10:01:25;7.93;;;3.55;;
26319;SDS011;14024;52.226;5.200;2022-09-09T10:06:38;11.00;;;4.20;;
26319;SDS011;14024;52.226;5.200;2022-09-09T10:09:22;9.70;;;3.75;;
26319;SDS011;14024;52.226;5.200;2022-09-09T10:14:31;12.88;;;3.88;;
26319;SDS011;14024;52.226;5.200;2022-09-09T10:19:30;13.82;;;4.35;;
26319;SDS011;14024;52.226;5.200;2022-09-09T10:22:01;10.80;;;4.30;;
26319;SDS011;14024;52.226;5.200;2022-09-09T10:24:36;11.52;;;4.00;;
26319;SDS011;14024;52.226;5.200;2022-09-09T10:27:11;11.95;;;3.70;;
26319;SDS011;14024;52.226;5.200;2022-09-09T10:29:51;10.30;;;3.72;;
26319;SDS011;14024;52.226;5.200;2022-09-09T10:32:27;10.27;;;3.80;;
26319;SDS011;14024;52.226;5.200;2022-09-09T10:35:01;14.55;;;3.95;;
26319;SDS011;14024;52.226;5.200;2022-09-09T10:37:38;10.23;;;4.80;;
26319;SDS011;14024;52.226;5.200;2022-09-09T10:42:34;12.10;;;5.13;;
26319;SDS011;14024;52.226;5.200;2022-09-09T10:45:13;17.77;;;4.57;;
26319;SDS011;14024;52.226;5.200;2022-09-09T10:47:47;10.30;;;4.40;;
26319;SDS011;14024;52.226;5.200;2022-09-09T10:55:50;7.82;;;4.10;;
26319;SDS011;14024;52.226;5.200;2022-09-09T10:58:20;11.25;;;4.78;;
26319;SDS011;14024;52.226;5.200;2022-09-09T11:00:48;10.80;;;3.85;;
26319;SDS011;14024;52.226;5.200;2022-09-09T11:03:22;11.10;;;5.20;;
26319;SDS011;14024;52.226;5.200;2022-09-09T11:05:51;12.65;;;4.40;;
26319;SDS011;14024;52.226;5.200;2022-09-09T11:08:29;8.73;;;3.80;;
26319;SDS011;14024;52.226;5.200;2022-09-09T11:11:01;10.18;;;3.65;;
26319;SDS011;14024;52.226;5.200;2022-09-09T11:16:31;15.27;;;4.07;;
26319;SDS011;14024;52.226;5.200;2022-09-09T11:18:48;9.73;;;3.70;;
26319;SDS011;14024;52.226;5.200;2022-09-09T11:21:37;8.85;;;4.75;;
26319;SDS011;14024;52.226;5.200;2022-09-09T11:24:04;10.25;;;3.50;;
26319;SDS011;14024;52.226;5.200;2022-09-09T11:26:37;10.43;;;4.10;;
26319;SDS011;14024;52.226;5.200;2022-09-09T11:42:04;8.00;;;4.18;;
26319;SDS011;14024;52.226;5.200;2022-09-09T11:44:31;16.17;;;4.32;;
26319;SDS011;14024;52.226;5.200;2022-09-09T11:46:57;12.70;;;4.38;;
26319;SDS011;14024;52.226;5.200;2022-09-09T11:49:42;5.85;;;3.00;;
26319;SDS011;14024;52.226;5.200;2022-09-09T11:52:13;9.50;;;3.75;;
26319;SDS011;14024;52.226;5.200;2022-09-09T11:54:47;6.65;;;3.40;;
26319;SDS011;14024;52.226;5.200;2022-09-09T11:57:23;9.05;;;3.25;;
26319;SDS011;14024;52.226;5.200;2022-09-09T11:59:51;10.65;;;3.40;;
26319;SDS011;14024;52.226;5.200;2022-09-09T12:02:22;13.57;;;3.78;;
26319;SDS011;14024;52.226;5.200;2022-09-09T12:04:53;9.82;;;3.17;;
26319;SDS011;14024;52.226;5.200;2022-09-09T12:07:33;9.73;;;3.15;;
26319;SDS011;14024;52.226;5.200;2022-09-09T12:12:32;8.23;;;3.35;;
26319;SDS011;14024;52.226;5.200;2022-09-09T12:18:15;15.48;;;4.10;;
26319;SDS011;14024;52.226;5.200;2022-09-09T12:20:30;7.60;;;3.70;;
26319;SDS011;14024;52.226;5.200;2022-09-09T12:25:46;7.18;;;3.40;;
26319;SDS011;14024;52.226;5.200;2022-09-09T12:30:45;8.43;;;3.28;;
26319;SDS011;14024;52.226;5.200;2022-09-09T12:33:16;12.48;;;4.10;;
26319;SDS011;14024;52.226;5.200;2022-09-09T12:35:42;4.53;;;3.42;;
26319;SDS011;14024;52.226;5.200;2022-09-09T12:38:12;8.43;;;3.78;;
26319;SDS011;14024;52.226;5.200;2022-09-09T12:40:39;10.75;;;3.65;;
26319;SDS011;14024;52.226;5.200;2022-09-09T12:43:18;11.02;;;3.97;;
26319;SDS011;14024;52.226;5.200;2022-09-09T12:45:46;7.47;;;3.45;;
26319;SDS011;14024;52.226;5.200;2022-09-09T12:48:14;11.02;;;4.38;;
26319;SDS011;14024;52.226;5.200;2022-09-09T12:50:46;14.20;;;4.10;;
26319;SDS011;14024;52.226;5.200;2022-09-09T12:53:22;15.73;;;4.05;;
26319;SDS011;14024;52.226;5.200;2022-09-09T12:55:51;9.98;;;4.18;;
26319;SDS011;14024;52.226;5.200;2022-09-09T12:58:18;11.10;;;4.00;;
26319;SDS011;14024;52.226;5.200;2022-09-09T13:00:52;6.53;;;4.10;;
26319;SDS011;14024;52.226;5.200;2022-09-09T13:03:20;7.88;;;4.20;;
26319;SDS011;14024;52.226;5.200;2022-09-09T13:05:46;10.13;;;4.32;;
26319;SDS011;14024;52.226;5.200;2022-09-09T13:08:13;9.15;;;4.30;;
26319;SDS011;14024;52.226;5.200;2022-09-09T13:13:23;8.05;;;4.25;;
26319;SDS011;14024;52.226;5.200;2022-09-09T13:15:50;10.88;;;4.93;;
26319;SDS011;14024;52.226;5.200;2022-09-09T13:18:16;8.13;;;4.15;;
26319;SDS011;14024;52.226;5.200;2022-09-09T13:20:47;15.75;;;4.55;;
26319;SDS011;14024;52.226;5.200;2022-09-09T13:23:13;14.60;;;5.93;;
26319;SDS011;14024;52.226;5.200;2022-09-09T13:25:40;10.48;;;4.25;;
26319;SDS011;14024;52.226;5.200;2022-09-09T13:28:18;33.10;;;5.07;;
26319;SDS011;14024;52.226;5.200;2022-09-09T13:30:54;13.55;;;5.90;;
26319;SDS011;14024;52.226;5.200;2022-09-09T13:33:24;15.65;;;5.00;;
26319;SDS011;14024;52.226;5.200;2022-09-09T13:35:55;6.95;;;4.50;;
26319;SDS011;14024;52.226;5.200;2022-09-09T13:38:22;10.57;;;4.80;;
26319;SDS011;14024;52.226;5.200;2022-09-09T13:43:22;11.55;;;4.65;;
26319;SDS011;14024;52.226;5.200;2022-09-09T13:45:56;6.05;;;3.83;;
26319;SDS011;14024;52.226;5.200;2022-09-09T13:48:23;9.65;;;4.25;;
26319;SDS011;14024;52.226;5.200;2022-09-09T13:50:56;7.50;;;3.67;;
26319;SDS011;14024;52.226;5.200;2022-09-09T13:53:22;8.13;;;3.85;;
26319;SDS011;14024;52.226;5.200;2022-09-09T13:55:49;7.63;;;3.72;;
26319;SDS011;14024;52.226;5.200;2022-09-09T13:58:16;9.98;;;3.97;;
26319;SDS011;14024;52.226;5.200;2022-09-09T14:00:43;12.02;;;4.30;;
26319;SDS011;14024;52.226;5.200;2022-09-09T14:03:10;7.32;;;3.88;;
26319;SDS011;14024;52.226;5.200;2022-09-09T14:05:36;10.13;;;4.25;;
26319;SDS011;14024;52.226;5.200;2022-09-09T14:08:06;6.20;;;3.63;;
26319;SDS011;14024;52.226;5.200;2022-09-09T14:10:32;12.07;;;4.07;;
26319;SDS011;14024;52.226;5.200;2022-09-09T14:13:00;7.05;;;3.90;;
26319;SDS011;14024;52.226;5.200;2022-09-09T14:15:26;8.13;;;4.13;;
26319;SDS011;14024;52.226;5.200;2022-09-09T14:17:53;8.60;;;4.00;;
26319;SDS011;14024;52.226;5.200;2022-09-09T14:20:19;11.80;;;4.70;;
26319;SDS011;14024;52.226;5.200;2022-09-09T14:22:45;10.27;;;4.40;;
26319;SDS011;14024;52.226;5.200;2022-09-09T14:25:11;10.43;;;4.50;;
26319;SDS011;14024;52.226;5.200;2022-09-09T14:27:38;6.25;;;4.07;;
26319;SDS011;14024;52.226;5.200;2022-09-09T14:30:04;8.95;;;4.03;;
26319;SDS011;14024;52.226;5.200;2022-09-09T14:32:30;6.35;;;4.25;;
26319;SDS011;14024;52.226;5.200;2022-09-09T14:34:56;9.07;;;4.88;;
26319;SDS011;14024;52.226;5.200;2022-09-09T14:37:22;9.60;;;4.53;;
26319;SDS011;14024;52.226;5.200;2022-09-09T14:39:49;10.68;;;4.78;;
26319;SDS011;14024;52.226;5.200;2022-09-09T14:42:15;9.10;;;4.50;;
26319;SDS011;14024;52.226;5.200;2022-09-09T14:44:42;7.95;;;4.75;;
26319;SDS011;14024;52.226;5.200;2022-09-09T14:47:08;9.82;;;5.25;;
26319;SDS011;14024;52.226;5.200;2022-09-09T14:49:34;14.23;;;4.88;;
26319;SDS011;14024;52.226;5.200;2022-09-09T14:52:00;10.45;;;4.85;;
26319;SDS011;14024;52.226;5.200;2022-09-09T14:54:26;9.57;;;4.60;;
26319;SDS011;14024;52.226;5.200;2022-09-09T14:56:53;12.68;;;5.22;;
26319;SDS011;14024;52.226;5.200;2022-09-09T14:59:19;7.88;;;5.13;;
26319;SDS011;14024;52.226;5.200;2022-09-09T15:01:47;7.43;;;4.45;;
26319;SDS011;14024;52.226;5.200;2022-09-09T15:04:13;5.25;;;4.38;;
26319;SDS011;14024;52.226;5.200;2022-09-09T15:06:39;8.80;;;4.35;;
26319;SDS011;14024;52.226;5.200;2022-09-09T15:09:07;10.18;;;4.22;;
26319;SDS011;14024;52.226;5.200;2022-09-09T15:11:35;8.13;;;4.00;;
26319;SDS011;14024;52.226;5.200;2022-09-09T15:14:03;8.88;;;4.47;;
26319;SDS011;14024;52.226;5.200;2022-09-09T15:16:29;7.78;;;3.85;;
26319;SDS011;14024;52.226;5.200;2022-09-09T15:18:55;7.32;;;2.70;;
26319;SDS011;14024;52.226;5.200;2022-09-09T15:21:23;6.82;;;2.63;;
26319;SDS011;14024;52.226;5.200;2022-09-09T15:23:50;4.85;;;2.50;;
26319;SDS011;14024;52.226;5.200;2022-09-09T15:26:16;5.28;;;2.15;;
26319;SDS011;14024;52.226;5.200;2022-09-09T15:28:43;5.75;;;2.30;;
26319;SDS011;14024;52.226;5.200;2022-09-09T15:31:16;2.15;;;1.80;;
26319;SDS011;14024;52.226;5.200;2022-09-09T15:36:24;5.68;;;2.78;;
26319;SDS011;14024;52.226;5.200;2022-09-09T15:38:51;4.35;;;2.40;;
26319;SDS011;14024;52.226;5.200;2022-09-09T15:41:18;6.18;;;2.30;;
26319;SDS011;14024;52.226;5.200;2022-09-09T15:43:45;4.22;;;2.10;;
26319;SDS011;14024;52.226;5.200;2022-09-09T15:46:30;5.22;;;2.75;;
26319;SDS011;14024;52.226;5.200;2022-09-09T15:49:09;8.00;;;2.80;;
26319;SDS011;14024;52.226;5.200;2022-09-09T15:54:02;5.72;;;3.40;;
26319;SDS011;14024;52.226;5.200;2022-09-09T15:56:29;6.25;;;2.75;;
26319;SDS011;14024;52.226;5.200;2022-09-09T15:58:55;10.77;;;3.42;;
26319;SDS011;14024;52.226;5.200;2022-09-09T16:01:23;6.95;;;2.70;;
26319;SDS011;14024;52.226;5.200;2022-09-09T16:03:49;6.47;;;2.63;;
26319;SDS011;14024;52.226;5.200;2022-09-09T16:06:20;7.72;;;2.92;;
26319;SDS011;14024;52.226;5.200;2022-09-09T16:08:47;8.68;;;2.90;;
26319;SDS011;14024;52.226;5.200;2022-09-09T16:11:16;10.23;;;3.30;;
26319;SDS011;14024;52.226;5.200;2022-09-09T16:13:44;9.63;;;2.80;;
26319;SDS011;14024;52.226;5.200;2022-09-09T16:16:11;8.85;;;2.60;;
26319;SDS011;14024;52.226;5.200;2022-09-09T16:18:39;7.13;;;3.00;;
26319;SDS011;14024;52.226;5.200;2022-09-09T16:21:05;5.05;;;2.55;;
26319;SDS011;14024;52.226;5.200;2022-09-09T16:23:33;5.53;;;2.47;;
26319;SDS011;14024;52.226;5.200;2022-09-09T16:25:59;8.50;;;2.67;;
26319;SDS011;14024;52.226;5.200;2022-09-09T16:28:25;5.80;;;2.38;;
26319;SDS011;14024;52.226;5.200;2022-09-09T16:30:51;6.88;;;2.22;;
26319;SDS011;14024;52.226;5.200;2022-09-09T16:33:17;6.25;;;2.05;;
26319;SDS011;14024;52.226;5.200;2022-09-09T16:35:43;8.68;;;2.70;;